Time;durP1;ratioP1;P1;durP2;ratioP2;P2;SDS_P1;SDS_P2;PMS_P1;PMS_P2;Temp;Humidity;BMP_temperature;BMP_pressure;BME280_temperature;BME280_humidity;BME280_pressure;Samples;Min_cycle;Max_cycle;Signal;HPM_P1;HPM_P2
2023/05/21 00:00:15;;;;;;;13.32;8.98;;;;;;;12.37;100.00;100841.81;686863;28;4379;-57
2023/05/21 00:00:36;;;;;;;13.40;8.97;;;;;;;12.38;100.00;100840.09;686464;28;1369;-57
2023/05/21 00:00:56;;;;;;;12.77;8.70;;;;;;;12.40;100.00;100846.16;685351;28;1568;-57
2023/05/21 00:01:17;;;;;;;11.87;7.97;;;;;;;12.39;100.00;100839.19;684808;28;732;-57
2023/05/21 00:01:38;;;;;;;12.25;8.45;;;;;;;12.40;100.00;100843.53;684320;28;1029;-57
2023/05/21 00:02:00;;;;;;;11.93;8.13;;;;;;;12.38;100.00;100837.47;683874;28;1581;-57
2023/05/21 00:02:21;;;;;;;11.45;7.93;;;;;;;12.37;100.00;100833.09;687049;28;1259;-57
2023/05/21 00:02:41;;;;;;;13.38;8.50;;;;;;;12.36;100.00;100836.59;687161;28;898;-57
2023/05/21 00:03:02;;;;;;;14.53;8.13;;;;;;;12.34;100.00;100836.63;683951;28;1446;-57
2023/05/21 00:03:25;;;;;;;13.45;8.32;;;;;;;12.35;100.00;100840.09;686782;28;4546;-57
2023/05/21 00:03:45;;;;;;;11.27;8.40;;;;;;;12.34;100.00;100838.38;687007;28;1022;-55
2023/05/21 00:04:06;;;;;;;11.33;8.43;;;;;;;12.31;100.00;100831.41;686202;28;1557;-57
2023/05/21 00:04:28;;;;;;;11.55;8.50;;;;;;;12.31;100.00;100841.00;687538;28;889;-57
2023/05/21 00:04:50;;;;;;;12.45;8.68;;;;;;;12.30;100.00;100836.66;687772;28;1048;-57
2023/05/21 00:05:12;;;;;;;13.98;8.93;;;;;;;12.31;100.00;100841.91;688608;28;1418;-57
2023/05/21 00:05:32;;;;;;;12.60;8.52;;;;;;;12.30;100.00;100834.91;690058;28;1236;-57
2023/05/21 00:05:53;;;;;;;11.48;8.50;;;;;;;12.32;100.00;100830.50;689584;28;817;-57
2023/05/21 00:06:14;;;;;;;12.10;8.43;;;;;;;12.37;100.00;100833.97;688788;28;1528;-57
2023/05/21 00:06:34;;;;;;;12.57;8.35;;;;;;;12.36;100.00;100828.72;689489;28;4493;-57
2023/05/21 00:06:55;;;;;;;13.07;8.95;;;;;;;12.34;100.00;100830.50;689881;28;952;-57
2023/05/21 00:07:15;;;;;;;12.68;8.88;;;;;;;12.31;100.00;100826.16;688779;28;1965;-58
2023/05/21 00:07:36;;;;;;;12.87;8.33;;;;;;;12.29;100.00;100827.91;690326;28;834;-57
2023/05/21 00:07:56;;;;;;;12.57;8.20;;;;;;;12.39;100.00;100829.59;688707;28;1527;-57
2023/05/21 00:08:16;;;;;;;11.32;8.20;;;;;;;12.41;100.00;100829.56;690232;28;1013;-57
2023/05/21 00:08:37;;;;;;;12.97;8.43;;;;;;;12.45;100.00;100831.28;689958;28;865;-56
2023/05/21 00:08:57;;;;;;;12.90;8.50;;;;;;;12.45;100.00;100833.91;688494;28;1639;-57
2023/05/21 00:09:17;;;;;;;11.20;8.10;;;;;;;12.43;100.00;100835.66;689401;28;4511;-57
2023/05/21 00:09:38;;;;;;;10.83;7.77;;;;;;;12.42;100.00;100828.69;690337;28;887;-57
2023/05/21 00:09:59;;;;;;;11.18;7.75;;;;;;;12.37;100.00;100833.97;688795;28;1476;-56
2023/05/21 00:10:19;;;;;;;11.25;8.10;;;;;;;12.34;100.00;100830.50;689895;28;1259;-57
2023/05/21 00:10:40;;;;;;;10.93;7.85;;;;;;;12.33;100.00;100834.00;690397;28;893;-56
2023/05/21 00:11:00;;;;;;;11.23;7.77;;;;;;;12.31;100.00;100834.03;688844;28;1520;-57
2023/05/21 00:11:21;;;;;;;11.67;8.13;;;;;;;12.30;100.00;100831.44;690128;28;889;-55
2023/05/21 00:11:41;;;;;;;11.95;8.40;;;;;;;12.27;100.00;100829.69;690241;28;973;-58
2023/05/21 00:12:02;;;;;;;11.60;8.53;;;;;;;12.26;100.00;100833.19;688638;28;1452;-56
2023/05/21 00:12:22;;;;;;;12.15;8.63;;;;;;;12.24;100.00;100830.59;688647;28;4694;-57
2023/05/21 00:12:42;;;;;;;12.57;8.53;;;;;;;12.22;100.00;100827.09;690509;28;974;-56
2023/05/21 00:13:03;;;;;;;12.13;8.27;;;;;;;12.23;100.00;100839.31;688798;28;928;-56
2023/05/21 00:13:23;;;;;;;11.27;8.03;;;;;;;12.23;100.00;100831.47;690119;28;912;-57
2023/05/21 00:13:43;;;;;;;11.80;8.47;;;;;;;12.24;100.00;100829.72;690086;28;1375;-56
2023/05/21 00:14:04;;;;;;;11.88;8.65;;;;;;;12.22;100.00;100832.34;688686;28;1124;-56
2023/05/21 00:14:24;;;;;;;11.60;8.40;;;;;;;12.24;100.00;100829.72;690506;28;1226;-57
2023/05/21 00:14:44;;;;;;;11.88;8.05;;;;;;;12.27;100.00;100830.56;687268;28;1226;-57
2023/05/21 00:15:06;;;;;;;11.87;8.07;;;;;;;12.26;100.00;100827.94;684906;28;1451;-56
2023/05/21 00:15:27;;;;;;;11.90;7.95;;;;;;;12.26;100.00;100833.19;686829;28;4456;-57
2023/05/21 00:15:47;;;;;;;11.67;7.80;;;;;;;12.24;100.00;100833.22;687448;28;873;-56
2023/05/21 00:16:09;;;;;;;12.07;8.40;;;;;;;12.22;100.00;100829.72;683930;28;1455;-57
2023/05/21 00:16:30;;;;;;;10.52;7.70;;;;;;;12.20;100.00;100826.25;687494;28;996;-56
2023/05/21 00:16:50;;;;;;;11.50;8.20;;;;;;;12.19;100.00;100826.28;687893;28;961;-55
2023/05/21 00:17:10;;;;;;;11.80;8.47;;;;;;;12.17;100.00;100826.28;686238;28;1462;-57
2023/05/21 00:17:31;;;;;;;12.83;8.30;;;;;;;12.22;100.00;100821.00;689790;28;802;-57
2023/05/21 00:17:51;;;;;;;11.57;7.93;;;;;;;12.21;100.00;100824.50;688882;28;793;-57
2023/05/21 00:18:12;;;;;;;11.30;8.10;;;;;;;12.18;100.00;100824.53;687661;28;1667;-56
2023/05/21 00:18:33;;;;;;;12.18;8.30;;;;;;;12.18;100.00;100819.28;687196;28;4346;-55
2023/05/21 00:18:54;;;;;;;11.70;8.23;;;;;;;12.16;100.00;100821.91;688791;28;983;-61
2023/05/21 00:19:14;;;;;;;11.43;8.15;;;;;;;12.16;100.00;100824.53;687473;28;1584;-57
2023/05/21 00:19:34;;;;;;;10.97;8.07;;;;;;;12.14;100.00;100818.44;685111;28;873;-57
2023/05/21 00:19:55;;;;;;;11.93;8.53;;;;;;;12.12;100.00;100821.97;681932;28;1256;-57
2023/05/21 00:20:16;;;;;;;10.95;8.30;;;;;;;12.13;100.00;100823.69;684443;28;953;-57
2023/05/21 00:20:37;;;;;;;10.87;8.03;;;;;;;12.13;100.00;100821.97;684308;28;892;-57
2023/05/21 00:20:58;;;;;;;11.25;7.95;;;;;;;12.16;100.00;100821.91;682555;28;967;-57
2023/05/21 00:21:24;;;;;;;11.25;7.80;;;;;;;12.18;100.00;100817.53;684724;28;4418;-57
2023/05/21 00:21:45;;;;;;;11.57;7.93;;;;;;;12.16;100.00;100821.91;686382;28;1338;-57
2023/05/21 00:22:06;;;;;;;10.47;7.43;;;;;;;12.15;100.00;100825.41;687107;28;986;-56
2023/05/21 00:22:26;;;;;;;11.95;7.80;;;;;;;12.15;100.00;100822.78;687754;28;880;-57
2023/05/21 00:22:47;;;;;;;12.23;7.50;;;;;;;12.13;100.00;100821.06;690389;28;774;-57
2023/05/21 00:23:09;;;;;;;11.23;7.40;;;;;;;12.12;100.00;100824.59;689267;28;1085;-57
2023/05/21 00:23:31;;;;;;;11.77;8.18;;;;;;;12.09;100.00;100820.25;690361;28;972;-57
2023/05/21 00:23:55;;;;;;;12.25;8.23;;;;;;;12.08;100.00;100821.13;689854;28;797;-57
2023/05/21 00:24:15;;;;;;;10.23;7.75;;;;;;;12.08;100.00;100818.50;688564;28;4441;-56
2023/05/21 00:24:36;;;;;;;10.13;7.93;;;;;;;12.08;100.00;100815.88;690033;28;968;-58
2023/05/21 00:24:59;;;;;;;10.85;7.78;;;;;;;12.06;100.00;100815.91;688860;28;1276;-55
2023/05/21 00:25:22;;;;;;;11.00;8.13;;;;;;;12.05;100.00;100814.16;690169;28;996;-57
2023/05/21 00:25:42;;;;;;;12.07;8.10;;;;;;;12.05;100.00;100821.16;690087;28;809;-56
2023/05/21 00:26:02;;;;;;;12.07;7.93;;;;;;;12.05;100.00;100818.53;688518;28;1043;-57
2023/05/21 00:26:23;;;;;;;11.50;8.50;;;;;;;12.04;100.00;100817.63;687246;28;1571;-56
2023/05/21 00:26:47;;;;;;;11.57;8.45;;;;;;;12.08;100.00;100813.25;689690;28;1126;-57
2023/05/21 00:27:07;;;;;;;11.33;8.40;;;;;;;12.08;100.00;100813.25;689043;28;1249;-57
2023/05/21 00:27:28;;;;;;;12.10;8.27;;;;;;;12.07;100.00;100815.03;687919;28;4583;-57
2023/05/21 00:27:48;;;;;;;11.93;8.23;;;;;;;12.07;100.00;100811.50;687282;28;868;-56
2023/05/21 00:28:09;;;;;;;11.55;8.20;;;;;;;12.05;100.00;100819.38;685724;28;1302;-57
2023/05/21 00:28:29;;;;;;;11.50;8.43;;;;;;;12.05;100.00;100818.53;688179;28;1499;-57
2023/05/21 00:28:50;;;;;;;11.05;7.60;;;;;;;12.05;100.00;100818.53;686099;28;1197;-57
2023/05/21 00:29:10;;;;;;;11.80;7.77;;;;;;;12.04;100.00;100819.41;684817;28;1210;-58
2023/05/21 00:29:31;;;;;;;11.53;7.93;;;;;;;12.03;100.00;100809.78;685958;28;818;-57
2023/05/21 00:29:53;;;;;;;12.00;8.20;;;;;;;12.02;100.00;100810.69;686196;28;1438;-57
2023/05/21 00:30:15;;;;;;;12.13;8.15;;;;;;;12.02;100.00;100811.56;684794;28;971;-57
2023/05/21 00:30:35;;;;;;;11.52;7.75;;;;;;;12.03;100.00;100815.94;686335;28;4695;-57
2023/05/21 00:30:55;;;;;;;11.90;8.05;;;;;;;12.02;100.00;100814.19;687169;28;1336;-56
2023/05/21 00:31:16;;;;;;;11.53;8.10;;;;;;;12.02;100.00;100808.94;685491;28;1168;-56
2023/05/21 00:31:36;;;;;;;10.87;8.10;;;;;;;12.03;100.00;100812.41;686749;28;1155;-57
2023/05/21 00:31:57;;;;;;;11.25;8.20;;;;;;;12.01;100.00;100812.44;686548;28;920;-59
2023/05/21 00:32:17;;;;;;;11.97;8.00;;;;;;;12.03;100.00;100813.31;686621;28;809;-57
2023/05/21 00:32:38;;;;;;;12.15;8.60;;;;;;;12.03;100.00;100809.78;683900;28;3773;-57
2023/05/21 00:33:01;;;;;;;11.95;8.45;;;;;;;12.02;100.00;100808.94;680560;28;1645;-57
2023/05/21 00:33:21;;;;;;;11.70;7.97;;;;;;;12.02;100.00;100810.69;682263;28;4585;-57
2023/05/21 00:33:42;;;;;;;12.90;8.10;;;;;;;12.00;100.00;100810.69;682983;28;1264;-57
2023/05/21 00:34:02;;;;;;;12.25;8.00;;;;;;;12.00;100.00;100815.94;684442;28;1538;-57
2023/05/21 00:34:23;;;;;;;12.33;8.57;;;;;;;12.00;100.00;100807.22;685460;28;975;-57
2023/05/21 00:34:43;;;;;;;11.77;8.52;;;;;;;12.00;100.00;100810.69;687643;28;1291;-57
2023/05/21 00:35:05;;;;;;;11.03;7.90;;;;;;;12.00;100.00;100810.69;686960;28;1581;-56
2023/05/21 00:35:25;;;;;;;10.90;7.93;;;;;;;11.98;100.00;100801.13;685352;28;1120;-56
2023/05/21 00:35:45;;;;;;;11.30;8.10;;;;;;;12.01;100.00;100806.34;684209;28;952;-57
2023/05/21 00:36:06;;;;;;;11.80;7.75;;;;;;;12.05;100.00;100808.91;683219;28;1619;-57
2023/05/21 00:36:26;;;;;;;12.27;8.20;;;;;;;12.04;100.00;100801.06;685238;28;4519;-57
2023/05/21 00:36:46;;;;;;;12.10;8.17;;;;;;;12.03;100.00;100804.56;687603;28;877;-57
2023/05/21 00:37:08;;;;;;;11.88;8.10;;;;;;;12.03;100.00;100801.94;686069;28;1168;-57
2023/05/21 00:37:33;;;;;;;10.65;7.82;;;;;;;12.02;100.00;100802.84;689901;28;758;-57
2023/05/21 00:37:54;;;;;;;10.52;7.80;;;;;;;12.01;100.00;100801.94;689335;28;1339;-56
2023/05/21 00:38:17;;;;;;;10.68;7.60;;;;;;;12.00;100.00;100799.34;685559;28;1555;-57
2023/05/21 00:38:37;;;;;;;10.60;7.72;;;;;;;12.01;100.00;100803.72;687326;28;995;-56
2023/05/21 00:38:58;;;;;;;11.13;7.85;;;;;;;11.99;100.00;100802.84;689712;28;1510;-57
2023/05/21 00:39:18;;;;;;;10.93;7.50;;;;;;;11.98;100.00;100798.50;689859;28;4587;-57
2023/05/21 00:39:38;;;;;;;10.10;7.33;;;;;;;11.99;100.00;100800.22;689285;28;917;-57
2023/05/21 00:40:00;;;;;;;11.90;8.17;;;;;;;11.98;100.00;100803.75;688183;28;1946;-56
2023/05/21 00:40:21;;;;;;;12.23;8.27;;;;;;;11.95;100.00;100799.41;687888;28;903;-57
2023/05/21 00:40:41;;;;;;;13.67;8.50;;;;;;;11.95;100.00;100796.78;686564;28;1150;-56
2023/05/21 00:41:01;;;;;;;12.23;8.10;;;;;;;11.97;100.00;100799.38;686229;28;1518;-57
2023/05/21 00:41:24;;;;;;;11.60;7.97;;;;;;;11.95;100.00;100802.03;687435;28;733;-57
2023/05/21 00:41:45;;;;;;;11.45;7.95;;;;;;;11.95;100.00;100806.38;687124;28;1000;-57
2023/05/21 00:42:05;;;;;;;11.57;7.85;;;;;;;11.93;100.00;100804.63;686295;28;1477;-56
2023/05/21 00:42:26;;;;;;;12.57;8.00;;;;;;;11.93;100.00;100803.72;685791;28;4692;-57
2023/05/21 00:42:47;;;;;;;11.27;8.00;;;;;;;11.93;100.00;100807.25;687280;28;802;-56
2023/05/21 00:43:09;;;;;;;11.43;8.30;;;;;;;11.92;100.00;100802.88;686037;28;1498;-57
2023/05/21 00:43:31;;;;;;;11.68;7.97;;;;;;;11.91;100.00;100803.75;684924;28;1213;-56
2023/05/21 00:43:51;;;;;;;10.57;7.55;;;;;;;11.93;100.00;100806.34;684320;28;2057;-56
2023/05/21 00:44:12;;;;;;;12.05;7.75;;;;;;;11.93;100.00;100807.25;683656;28;1603;-56
2023/05/21 00:44:34;;;;;;;12.77;7.90;;;;;;;11.95;100.00;100801.13;684019;28;901;-57
2023/05/21 00:44:54;;;;;;;11.90;7.90;;;;;;;11.93;100.00;100807.25;684584;28;932;-57
2023/05/21 00:45:15;;;;;;;9.98;7.60;;;;;;;11.92;100.00;100810.75;683213;28;4587;-54
2023/05/21 00:45:36;;;;;;;11.20;8.03;;;;;;;11.91;100.00;100803.75;684024;28;1303;-57
2023/05/21 00:45:58;;;;;;;10.65;7.60;;;;;;;11.92;100.00;100796.75;678042;29;1526;-56
2023/05/21 00:46:20;;;;;;;10.38;7.50;;;;;;;11.92;100.00;100799.38;681379;29;885;-57
2023/05/21 00:46:40;;;;;;;10.13;7.60;;;;;;;11.92;100.00;100797.63;680124;29;1049;-57
2023/05/21 00:47:01;;;;;;;10.35;7.63;;;;;;;11.92;100.00;100802.88;679181;28;1839;-57
2023/05/21 00:47:21;;;;;;;10.55;7.70;;;;;;;11.92;100.00;100797.63;679058;28;5300;-56
2023/05/21 00:47:42;;;;;;;11.63;7.73;;;;;;;11.92;100.00;100810.75;677858;29;1392;-57
2023/05/21 00:48:03;;;;;;;11.52;7.75;;;;;;;11.93;100.00;100803.72;677355;28;1540;-56
2023/05/21 00:48:24;;;;;;;13.52;8.07;;;;;;;11.92;100.00;100802.88;675845;29;4931;-54
2023/05/21 00:48:46;;;;;;;12.98;7.90;;;;;;;11.92;100.00;100800.25;677956;29;844;-56
2023/05/21 00:49:07;;;;;;;11.18;7.75;;;;;;;11.92;100.00;100796.75;680589;28;2229;-57
2023/05/21 00:49:27;;;;;;;11.18;8.02;;;;;;;11.92;100.00;100800.25;684648;28;1625;-57
2023/05/21 00:49:51;;;;;;;11.60;8.40;;;;;;;11.91;100.00;100803.75;684376;28;875;-56
2023/05/21 00:50:13;;;;;;;12.10;8.20;;;;;;;11.91;100.00;100803.75;680930;28;1531;-56
2023/05/21 00:50:35;;;;;;;11.48;7.90;;;;;;;11.91;100.00;100798.50;682179;29;1265;-57
2023/05/21 00:50:55;;;;;;;10.85;7.72;;;;;;;11.91;100.00;100802.91;681512;29;984;-57
2023/05/21 00:51:17;;;;;;;10.50;7.47;;;;;;;11.91;100.00;100803.75;680226;28;4589;-57
2023/05/21 00:51:37;;;;;;;10.90;7.25;;;;;;;11.90;100.00;100803.78;681981;29;1989;-57
2023/05/21 00:52:00;;;;;;;10.83;7.63;;;;;;;11.91;100.00;100802.91;681948;28;1495;-55
2023/05/21 00:52:21;;;;;;;10.85;7.30;;;;;;;11.90;100.00;100798.53;682918;28;818;-57
2023/05/21 00:52:42;;;;;;;10.43;7.60;;;;;;;11.90;100.00;100803.78;682671;28;1178;-57
2023/05/21 00:53:03;;;;;;;11.15;7.85;;;;;;;11.90;100.00;100804.63;680843;28;1826;-57
2023/05/21 00:53:24;;;;;;;10.32;7.50;;;;;;;11.90;100.00;100801.16;684014;28;1038;-57
2023/05/21 00:53:45;;;;;;;10.47;7.80;;;;;;;11.89;100.00;100802.91;688013;28;987;-57
2023/05/21 00:54:07;;;;;;;10.70;7.80;;;;;;;11.89;100.00;100797.66;685953;28;1499;-57
2023/05/21 00:54:28;;;;;;;11.02;8.18;;;;;;;11.89;100.00;100796.78;687186;28;4393;-57
2023/05/21 00:54:50;;;;;;;11.05;7.95;;;;;;;11.91;100.00;100798.50;687188;28;1005;-55
2023/05/21 00:55:10;;;;;;;10.73;7.70;;;;;;;11.90;100.00;100798.53;683563;28;1522;-57
2023/05/21 00:55:31;;;;;;;11.02;7.60;;;;;;;11.87;100.00;100794.19;682143;29;782;-57
2023/05/21 00:55:51;;;;;;;10.67;7.90;;;;;;;11.87;100.00;100799.41;681999;28;897;-57
2023/05/21 00:56:15;;;;;;;10.65;8.20;;;;;;;11.88;100.00;100806.41;680733;28;976;-55
2023/05/21 00:56:36;;;;;;;10.75;7.72;;;;;;;11.88;100.00;100795.91;679590;28;909;-56
2023/05/21 00:56:56;;;;;;;11.63;7.93;;;;;;;11.87;100.00;100798.56;680238;29;858;-56
2023/05/21 00:57:25;;;;;;;11.23;7.73;;;;;;;11.87;100.00;100799.41;680017;28;4436;-57
2023/05/21 00:57:46;;;;;;;11.00;7.70;;;;;;;11.88;100.00;100795.03;684691;28;917;-57
2023/05/21 00:58:07;;;;;;;10.13;7.63;;;;;;;11.89;100.00;100802.03;683562;28;1261;-56
2023/05/21 00:58:28;;;;;;;10.82;7.40;;;;;;;11.89;100.00;100799.41;685752;28;838;-57
2023/05/21 00:58:54;;;;;;;10.10;7.50;;;;;;;11.88;100.00;100798.53;687434;28;826;-56
2023/05/21 00:59:15;;;;;;;11.23;7.90;;;;;;;11.88;100.00;100801.16;685114;28;1558;-57
2023/05/21 00:59:36;;;;;;;10.90;7.97;;;;;;;11.88;100.00;100795.03;682088;28;925;-55
2023/05/21 00:59:56;;;;;;;10.10;7.47;;;;;;;11.87;100.00;100796.78;681374;28;1069;-57
2023/05/21 01:00:16;;;;;;;10.67;7.53;;;;;;;11.88;100.00;100797.66;680845;28;4549;-57
2023/05/21 01:00:39;;;;;;;11.07;7.53;;;;;;;11.88;100.00;100790.69;683951;28;897;-57
2023/05/21 01:01:05;;;;;;;12.10;7.70;;;;;;;11.88;100.00;100795.91;684206;28;1645;-57
2023/05/21 01:01:26;;;;;;;11.73;7.53;;;;;;;11.88;100.00;100793.31;687876;28;889;-55
2023/05/21 01:01:52;;;;;;;11.87;7.97;;;;;;;11.90;100.00;100793.28;689325;28;1238;-56
2023/05/21 01:02:16;;;;;;;10.65;7.60;;;;;;;11.89;100.00;100797.66;688392;28;1604;-57
2023/05/21 01:02:37;;;;;;;11.05;8.05;;;;;;;11.87;100.00;100796.78;686783;28;1157;-57
2023/05/21 01:02:57;;;;;;;10.53;7.47;;;;;;;11.88;100.00;100793.31;687167;28;963;-57
2023/05/21 01:03:19;;;;;;;11.00;7.07;;;;;;;11.87;100.00;100796.78;686844;28;4540;-57
2023/05/21 01:03:39;;;;;;;11.75;7.28;;;;;;;11.87;100.00;100802.03;686694;28;1027;-56
2023/05/21 01:04:01;;;;;;;11.63;7.40;;;;;;;11.86;100.00;100800.28;686047;28;1699;-57
2023/05/21 01:04:22;;;;;;;11.57;7.63;;;;;;;11.86;100.00;100797.66;685177;28;1256;-57
2023/05/21 01:04:44;;;;;;;10.68;7.50;;;;;;;11.86;100.00;100792.44;683311;28;912;-57
2023/05/21 01:05:05;;;;;;;9.80;7.47;;;;;;;11.88;100.00;100795.03;682398;28;1679;-56
2023/05/21 01:05:27;;;;;;;10.45;7.43;;;;;;;11.88;100.00;100790.69;683456;28;872;-57
2023/05/21 01:05:58;;;;;;;10.85;7.55;;;;;;;11.88;100.00;100790.69;682512;28;829;-55
2023/05/21 01:06:19;;;;;;;9.55;7.35;;;;;;;11.90;100.00;100791.53;683747;28;4516;-56
2023/05/21 01:06:41;;;;;;;9.93;7.40;;;;;;;11.95;100.00;100790.66;684200;28;1040;-57
2023/05/21 01:07:01;;;;;;;10.27;7.20;;;;;;;11.98;100.00;100790.66;686083;28;1566;-57
2023/05/21 01:07:22;;;;;;;11.27;7.47;;;;;;;11.98;100.00;100795.88;687283;28;1921;-56
2023/05/21 01:07:42;;;;;;;11.25;7.60;;;;;;;11.98;100.00;100788.88;685225;28;3616;-57
2023/05/21 01:08:03;;;;;;;10.40;7.60;;;;;;;11.97;100.00;100788.91;681714;28;2280;-56
2023/05/21 01:08:23;;;;;;;10.98;7.38;;;;;;;11.97;100.00;100789.75;689651;28;1396;-61
2023/05/21 01:08:44;;;;;;;10.43;7.70;;;;;;;11.96;100.00;100792.41;690138;28;1227;-57
2023/05/21 01:09:06;;;;;;;11.00;7.77;;;;;;;11.96;100.00;100792.41;686002;28;1561;-57
2023/05/21 01:09:27;;;;;;;12.02;7.53;;;;;;;11.97;100.00;100794.16;687319;28;4481;-57
2023/05/21 01:09:47;;;;;;;11.35;7.25;;;;;;;11.98;100.00;100790.66;684085;28;1565;-56
2023/05/21 01:10:10;;;;;;;11.27;7.15;;;;;;;11.96;100.00;100787.16;683524;28;1510;-57
2023/05/21 01:10:30;;;;;;;10.93;7.20;;;;;;;11.93;100.00;100786.28;681448;28;3579;-56
2023/05/21 01:10:52;;;;;;;10.38;7.20;;;;;;;11.93;100.00;100788.91;682300;28;2952;-57
2023/05/21 01:11:13;;;;;;;10.80;7.53;;;;;;;11.91;100.00;100790.66;685333;28;1504;-57
2023/05/21 01:11:43;;;;;;;10.80;7.55;;;;;;;11.90;100.00;100791.53;687375;28;1376;-55
2023/05/21 01:12:05;;;;;;;9.60;6.97;;;;;;;11.89;100.00;100787.19;688207;28;1560;-56
2023/05/21 01:12:25;;;;;;;10.25;7.15;;;;;;;11.88;100.00;100789.78;683257;28;4639;-56
2023/05/21 01:12:46;;;;;;;10.37;7.70;;;;;;;11.86;100.00;100786.34;683487;28;1254;-56
2023/05/21 01:13:07;;;;;;;11.07;7.55;;;;;;;11.85;100.00;100790.72;683034;28;1447;-57
2023/05/21 01:13:28;;;;;;;11.68;7.60;;;;;;;11.85;100.00;100789.81;687664;28;881;-57
2023/05/21 01:13:49;;;;;;;10.38;7.47;;;;;;;11.84;100.00;100788.97;686338;28;1170;-57
2023/05/21 01:14:12;;;;;;;9.82;7.40;;;;;;;11.84;100.00;100788.13;685909;28;1536;-56
2023/05/21 01:14:34;;;;;;;9.82;7.45;;;;;;;11.84;100.00;100788.97;689639;28;1001;-57
2023/05/21 01:14:58;;;;;;;10.13;7.45;;;;;;;11.84;100.00;100793.34;690028;28;1251;-57
2023/05/21 01:15:18;;;;;;;10.65;7.40;;;;;;;11.84;100.00;100790.72;683538;28;4723;-57
2023/05/21 01:15:39;;;;;;;10.17;7.30;;;;;;;11.84;100.00;100788.13;685415;28;1146;-56
2023/05/21 01:16:00;;;;;;;10.32;7.18;;;;;;;11.83;100.00;100789.84;684410;28;975;-55
2023/05/21 01:16:22;;;;;;;10.18;7.60;;;;;;;11.83;100.00;100781.97;687986;28;1562;-57
2023/05/21 01:16:45;;;;;;;9.18;6.78;;;;;;;11.84;100.00;100788.13;686712;28;786;-56
2023/05/21 01:17:09;;;;;;;10.57;7.18;;;;;;;11.84;100.00;100788.13;685323;28;1588;-57
2023/05/21 01:17:30;;;;;;;10.40;7.45;;;;;;;11.83;100.00;100789.84;687221;28;1236;-56
2023/05/21 01:17:50;;;;;;;11.70;7.28;;;;;;;11.83;100.00;100786.38;686665;28;905;-57
2023/05/21 01:18:13;;;;;;;11.13;7.03;;;;;;;11.84;100.00;100790.72;685369;28;1599;-57
2023/05/21 01:18:36;;;;;;;9.73;7.00;;;;;;;11.82;100.00;100790.72;687361;28;4516;-57
2023/05/21 01:18:56;;;;;;;9.88;6.80;;;;;;;11.82;100.00;100795.94;688157;28;1181;-56
2023/05/21 01:19:22;;;;;;;10.45;7.22;;;;;;;11.82;100.00;100790.72;685976;28;1514;-57
2023/05/21 01:19:43;;;;;;;10.02;7.10;;;;;;;11.83;100.00;100789.00;686823;28;1043;-57
2023/05/21 01:20:10;;;;;;;10.43;7.10;;;;;;;11.83;100.00;100786.38;684305;28;1735;-56
2023/05/21 01:20:31;;;;;;;10.00;7.15;;;;;;;11.83;100.00;100791.59;683226;28;1190;-56
2023/05/21 01:20:52;;;;;;;10.38;7.22;;;;;;;11.82;100.00;100795.94;683931;28;1245;-55
2023/05/21 01:21:16;;;;;;;9.60;7.07;;;;;;;11.82;100.00;100795.94;683046;28;1486;-55
2023/05/21 01:21:40;;;;;;;9.48;7.10;;;;;;;11.83;100.00;100792.47;683601;28;6174;-56
2023/05/21 01:22:06;;;;;;;9.93;6.95;;;;;;;11.82;100.00;100790.72;680357;28;1608;-56
2023/05/21 01:22:31;;;;;;;10.80;7.53;;;;;;;11.82;100.00;100795.09;678908;29;1385;-56
2023/05/21 01:22:54;;;;;;;10.30;7.43;;;;;;;11.81;100.00;100791.63;677368;29;2007;-56
2023/05/21 01:23:18;;;;;;;9.20;7.20;;;;;;;11.81;100.00;100788.13;681967;28;1630;-56
2023/05/21 01:23:38;;;;;;;10.07;7.28;;;;;;;11.81;100.00;100788.13;681270;29;876;-56
2023/05/21 01:24:00;;;;;;;9.43;6.87;;;;;;;11.81;100.00;100791.63;682000;28;925;-57
2023/05/21 01:24:21;;;;;;;9.13;6.47;;;;;;;11.81;100.00;100795.97;683731;28;4596;-55
2023/05/21 01:24:47;;;;;;;9.32;6.88;;;;;;;11.80;100.00;100794.25;684979;28;1147;-56
2023/05/21 01:25:07;;;;;;;11.68;7.28;;;;;;;11.79;100.00;100790.75;683477;28;1499;-57
2023/05/21 01:25:28;;;;;;;10.48;6.78;;;;;;;11.79;100.00;100796.00;684790;28;846;-57
2023/05/21 01:25:48;;;;;;;10.07;7.07;;;;;;;11.80;100.00;100792.50;684325;28;928;-57
2023/05/21 01:26:12;;;;;;;10.60;6.90;;;;;;;11.79;100.00;100788.13;683203;28;1539;-57
2023/05/21 01:26:37;;;;;;;9.63;7.03;;;;;;;11.79;100.00;100793.38;681601;29;1237;-57
2023/05/21 01:26:59;;;;;;;9.98;6.70;;;;;;;11.79;100.00;100788.13;683273;28;926;-57
2023/05/21 01:27:20;;;;;;;9.38;6.70;;;;;;;11.80;100.00;100792.50;681569;28;4561;-56
2023/05/21 01:27:40;;;;;;;9.63;6.93;;;;;;;11.80;100.00;100792.50;684083;28;1029;-57
2023/05/21 01:28:01;;;;;;;10.45;7.38;;;;;;;11.80;100.00;100789.00;680395;28;1479;-57
2023/05/21 01:28:21;;;;;;;9.97;6.80;;;;;;;11.79;100.00;100793.38;679896;29;696;-57
2023/05/21 01:28:42;;;;;;;9.35;6.80;;;;;;;11.79;100.00;100789.88;681409;28;3541;-56
2023/05/21 01:29:02;;;;;;;10.13;6.87;;;;;;;11.80;100.00;100786.41;682080;28;1630;-57
2023/05/21 01:29:23;;;;;;;11.02;7.22;;;;;;;11.78;100.00;100786.38;686580;28;922;-56
2023/05/21 01:29:43;;;;;;;11.13;7.78;;;;;;;11.77;100.00;100792.53;683540;28;1327;-57
2023/05/21 01:30:05;;;;;;;9.90;7.10;;;;;;;11.77;100.00;100792.53;681056;28;1677;-57
2023/05/21 01:30:25;;;;;;;10.52;6.93;;;;;;;11.78;100.00;100793.38;680547;28;4369;-55
2023/05/21 01:30:47;;;;;;;10.83;7.03;;;;;;;11.76;100.00;100788.16;682638;28;830;-56
2023/05/21 01:31:28;;;;;;;10.40;6.88;;;;;;;11.74;100.00;100792.53;682508;28;1523;-57
2023/05/21 01:32:00;;;;;;;9.43;6.90;;;;;;;11.73;100.00;100786.44;680862;28;909;-56
2023/05/21 01:32:25;;;;;;;8.60;6.68;;;;;;;11.72;100.00;100784.69;684390;28;759;-57
2023/05/21 01:32:57;;;;;;;9.25;6.93;;;;;;;11.73;100.00;100782.94;684073;28;849;-56
2023/05/21 01:33:40;;;;;;;9.27;6.28;;;;;;;11.74;100.00;100782.03;677552;29;4447;-57
2023/05/21 01:34:04;;;;;;;9.40;6.93;;;;;;;11.72;100.00;100778.59;682632;28;1531;-57
2023/05/21 01:34:33;;;;;;;9.50;7.05;;;;;;;11.72;100.00;100776.81;681937;29;813;-57
2023/05/21 01:35:12;;;;;;;10.70;7.15;;;;;;;11.74;100.00;100782.03;681618;28;1124;-57
2023/05/21 01:35:41;;;;;;;9.35;7.00;;;;;;;11.74;100.00;100779.44;684274;28;2283;-57
2023/05/21 01:36:12;;;;;;;10.77;7.50;;;;;;;11.74;100.00;100782.94;683069;28;1608;-57
2023/05/21 01:36:39;;;;;;;11.73;7.43;;;;;;;11.75;100.00;100782.06;685935;28;4584;-57
2023/05/21 01:37:25;;;;;;;10.38;7.03;;;;;;;11.76;100.00;100782.91;685720;28;1727;-57
2023/05/21 01:37:55;;;;;;;10.20;7.18;;;;;;;11.78;100.00;100789.00;689690;28;1402;-57
2023/05/21 01:38:28;;;;;;;10.23;6.82;;;;;;;11.79;100.00;100782.03;687601;28;1477;-56
2023/05/21 01:38:53;;;;;;;9.43;6.68;;;;;;;11.80;100.00;100784.63;687022;28;920;-57
2023/05/21 01:39:24;;;;;;;10.00;6.45;;;;;;;11.80;100.00;100783.78;682333;28;1519;-58
2023/05/21 01:39:53;;;;;;;11.20;7.18;;;;;;;11.80;100.00;100783.78;686815;28;5037;-57
2023/05/21 01:40:21;;;;;;;10.90;7.50;;;;;;;11.77;100.00;100782.06;682737;28;1510;-57
2023/05/21 01:40:57;;;;;;;9.30;6.72;;;;;;;11.78;100.00;100783.75;683181;28;1016;-56
2023/05/21 01:41:20;;;;;;;10.23;7.00;;;;;;;11.79;100.00;100780.28;683186;28;1561;-56
2023/05/21 01:41:43;;;;;;;9.77;7.07;;;;;;;11.78;100.00;100777.66;685249;28;1128;-57
2023/05/21 01:42:09;;;;;;;12.15;7.40;;;;;;;11.78;100.00;100773.28;686097;28;1026;-56
2023/05/21 01:42:32;;;;;;;11.05;7.25;;;;;;;11.78;100.00;100773.28;686930;28;4671;-57
2023/05/21 01:42:53;;;;;;;10.07;7.22;;;;;;;11.79;100.00;100785.50;689329;28;925;-57
2023/05/21 01:43:17;;;;;;;10.67;7.20;;;;;;;11.82;100.00;100777.63;688260;28;1513;-57
2023/05/21 01:43:41;;;;;;;9.88;7.22;;;;;;;11.81;100.00;100778.53;689372;28;1194;-57